createdAt,value
2019-03-27T00:01:58.974Z,5.60
2019-03-27T00:04:25.712Z,7.33
2019-03-27T00:06:52.374Z,9.73
2019-03-27T00:09:19.153Z,8.33
2019-03-27T00:11:45.822Z,10.43
2019-03-27T00:14:12.599Z,7.17
2019-03-27T00:16:39.329Z,7.23
2019-03-27T00:19:06.004Z,7.13
2019-03-27T00:21:32.738Z,5.30
2019-03-27T00:23:59.421Z,6.53
2019-03-27T00:26:26.069Z,8.70
2019-03-27T00:28:52.912Z,8.83
2019-03-27T00:31:19.742Z,9.30
2019-03-27T00:33:46.372Z,12.30
2019-03-27T00:36:13.084Z,7.23
2019-03-27T00:38:39.835Z,9.40
2019-03-27T00:41:06.559Z,8.37
2019-03-27T00:43:33.184Z,8.43
2019-03-27T00:45:59.896Z,9.23
2019-03-27T00:48:26.603Z,9.03
2019-03-27T00:50:53.374Z,7.73
2019-03-27T00:53:20.019Z,12.63
2019-03-27T00:55:46.797Z,9.03
2019-03-27T00:58:13.559Z,12.07
2019-03-27T01:00:46.620Z,8.30
2019-03-27T01:03:13.408Z,8.97
2019-03-27T01:05:40.032Z,15.30
2019-03-27T01:08:06.806Z,11.00
2019-03-27T01:10:33.573Z,12.40
2019-03-27T01:13:00.272Z,13.60
2019-03-27T01:15:39.199Z,9.63
2019-03-27T01:21:04.655Z,9.87
2019-03-27T01:23:31.393Z,12.10
2019-03-27T01:28:42.164Z,8.50
2019-03-27T01:31:08.934Z,8.53
2019-03-27T01:33:35.595Z,11.17
2019-03-27T01:36:02.240Z,12.23
2019-03-27T01:38:29.075Z,13.73
2019-03-27T01:40:55.780Z,8.33
2019-03-27T01:43:22.452Z,8.77
2019-03-27T01:45:53.293Z,9.53
2019-03-27T01:48:17.575Z,13.30
2019-03-27T01:50:44.350Z,10.50
2019-03-27T01:53:11.052Z,10.23
2019-03-27T01:55:37.837Z,11.20
2019-03-27T01:58:04.591Z,14.10
2019-03-27T02:00:31.263Z,13.60
2019-03-27T02:02:57.948Z,9.40
2019-03-27T02:05:24.651Z,8.57
2019-03-27T02:07:51.386Z,7.67
2019-03-27T02:10:18.194Z,8.10
2019-03-27T02:12:44.820Z,15.90
2019-03-27T02:15:11.622Z,14.40
2019-03-27T02:17:38.316Z,9.77
2019-03-27T02:22:42.206Z,12.50
2019-03-27T02:25:09.364Z,10.70
2019-03-27T02:27:36.041Z,9.83
2019-03-27T02:30:04.555Z,8.37
2019-03-27T02:32:31.224Z,11.90
2019-03-27T02:34:57.988Z,8.00
2019-03-27T02:37:24.634Z,8.87
2019-03-27T02:39:51.431Z,6.67
2019-03-27T02:42:18.112Z,7.17
2019-03-27T02:44:44.842Z,11.67
2019-03-27T02:47:11.538Z,14.53
2019-03-27T02:49:38.176Z,11.77
2019-03-27T02:52:04.970Z,7.40
2019-03-27T02:54:31.605Z,11.67
2019-03-27T02:56:58.436Z,8.33
2019-03-27T02:59:25.107Z,8.57
2019-03-27T03:01:51.891Z,15.03
2019-03-27T03:04:18.526Z,11.47
2019-03-27T03:06:45.189Z,9.90
2019-03-27T03:09:11.836Z,10.80
2019-03-27T03:11:38.506Z,7.93
2019-03-27T03:14:05.147Z,13.43
2019-03-27T03:16:41.929Z,13.00
2019-03-27T03:19:00.445Z,11.73
2019-03-27T03:21:27.226Z,8.40
2019-03-27T03:23:53.870Z,8.40
2019-03-27T03:26:20.500Z,15.00
2019-03-27T03:28:47.187Z,6.83
2019-03-27T03:31:13.897Z,10.70
2019-03-27T03:33:40.542Z,11.43
2019-03-27T03:36:07.189Z,7.43
2019-03-27T03:38:33.892Z,6.97
2019-03-27T03:41:00.546Z,13.30
2019-03-27T03:43:27.207Z,12.37
2019-03-27T03:45:53.885Z,13.23
2019-03-27T03:48:20.533Z,14.40
2019-03-27T03:50:47.317Z,7.10
2019-03-27T03:53:14.099Z,8.37
2019-03-27T03:55:41.742Z,7.90
2019-03-27T03:58:09.824Z,10.37
2019-03-27T04:00:36.776Z,7.83
2019-03-27T04:03:03.975Z,9.10
2019-03-27T04:05:30.741Z,8.50
2019-03-27T04:07:57.405Z,9.63
2019-03-27T04:10:24.068Z,19.23
2019-03-27T04:12:50.853Z,13.80
2019-03-27T04:15:17.608Z,14.60
2019-03-27T04:17:44.385Z,15.07
2019-03-27T04:20:11.130Z,11.27
2019-03-27T04:22:37.852Z,13.27
2019-03-27T04:25:05.323Z,10.37
2019-03-27T04:27:32.113Z,7.40
2019-03-27T04:29:58.768Z,15.03
2019-03-27T04:32:25.548Z,17.37
2019-03-27T04:34:52.387Z,9.80
2019-03-27T04:37:19.070Z,8.70
2019-03-27T04:39:45.745Z,14.07
2019-03-27T04:42:12.401Z,19.83
2019-03-27T04:44:39.239Z,12.70
2019-03-27T04:47:05.886Z,14.40
2019-03-27T04:49:32.701Z,11.80
2019-03-27T04:51:59.370Z,12.53
2019-03-27T04:54:27.131Z,13.00
2019-03-27T04:56:54.126Z,16.20
2019-03-27T04:59:20.820Z,14.10
2019-03-27T05:01:47.463Z,14.60
2019-03-27T05:04:14.461Z,15.97
2019-03-27T05:06:41.162Z,8.87
2019-03-27T05:09:07.831Z,11.90
2019-03-27T05:11:34.483Z,11.23
2019-03-27T05:14:01.262Z,9.60
2019-03-27T05:16:27.996Z,16.83
2019-03-27T05:18:54.689Z,19.07
2019-03-27T05:21:21.452Z,11.97
2019-03-27T05:23:48.152Z,24.03
2019-03-27T05:26:14.841Z,8.90
2019-03-27T05:28:41.505Z,10.13
2019-03-27T05:31:08.268Z,11.97
2019-03-27T05:33:35.018Z,9.97
2019-03-27T05:36:01.692Z,12.33
2019-03-27T05:38:28.388Z,13.50
2019-03-27T05:40:55.051Z,10.03
2019-03-27T05:43:21.820Z,16.10
2019-03-27T05:45:48.598Z,14.37
2019-03-27T05:48:15.246Z,22.87
2019-03-27T05:50:41.928Z,16.93
2019-03-27T05:53:08.577Z,15.87
2019-03-27T05:55:35.345Z,16.13
2019-03-27T05:58:02.108Z,21.53
2019-03-27T06:00:28.841Z,18.10
2019-03-27T06:02:55.581Z,14.53
2019-03-27T06:05:22.269Z,14.60
2019-03-27T06:07:48.969Z,17.87
2019-03-27T06:10:16.514Z,20.93
2019-03-27T06:12:43.294Z,11.00
2019-03-27T06:15:10.092Z,22.83
2019-03-27T06:17:36.844Z,18.97
2019-03-27T06:20:05.380Z,21.57
2019-03-27T06:22:32.084Z,20.40
2019-03-27T06:24:58.897Z,15.37
2019-03-27T06:27:25.601Z,25.20
2019-03-27T06:29:52.252Z,20.60
2019-03-27T06:32:18.924Z,25.77
2019-03-27T06:34:45.725Z,19.67
2019-03-27T06:37:12.486Z,16.50
2019-03-27T06:39:58.916Z,19.97
2019-03-27T06:42:25.673Z,26.93
2019-03-27T06:44:52.457Z,18.97
2019-03-27T06:47:19.118Z,20.20
2019-03-27T06:49:45.804Z,18.03
2019-03-27T06:52:12.439Z,18.63
2019-03-27T06:54:39.131Z,19.40
2019-03-27T06:57:05.888Z,22.50
2019-03-27T06:59:32.549Z,21.37
2019-03-27T07:01:59.398Z,20.13
2019-03-27T07:04:26.051Z,20.93
2019-03-27T07:06:52.836Z,17.53
2019-03-27T07:09:19.570Z,22.67
2019-03-27T07:11:46.340Z,15.80
2019-03-27T07:14:12.997Z,18.93
2019-03-27T07:16:39.697Z,18.20
2019-03-27T07:19:06.353Z,17.23
2019-03-27T07:21:33.135Z,18.03
2019-03-27T07:23:59.897Z,22.90
2019-03-27T07:26:26.605Z,15.07
2019-03-27T07:28:53.297Z,20.50
2019-03-27T07:31:20.028Z,21.67
2019-03-27T07:33:46.723Z,21.30
2019-03-27T07:36:13.368Z,22.33
2019-03-27T07:38:40.028Z,18.20
2019-03-27T07:41:06.729Z,21.30
2019-03-27T07:43:33.549Z,19.53
2019-03-27T07:46:00.188Z,21.10
2019-03-27T07:48:26.931Z,25.73
2019-03-27T07:50:53.713Z,22.87
2019-03-27T07:53:22.522Z,27.40
2019-03-27T07:55:48.965Z,20.97
2019-03-27T07:58:15.616Z,29.47
2019-03-27T08:00:42.371Z,27.57
2019-03-27T08:03:09.039Z,20.83
2019-03-27T08:05:35.681Z,24.50
2019-03-27T08:08:02.409Z,28.17
2019-03-27T08:10:29.084Z,18.63
2019-03-27T08:12:55.862Z,19.13
2019-03-27T08:15:22.520Z,18.20
2019-03-27T08:17:49.212Z,21.67
2019-03-27T08:20:16.001Z,27.40
2019-03-27T08:22:42.778Z,21.20
2019-03-27T08:25:09.757Z,30.17
2019-03-27T08:27:36.532Z,28.43
2019-03-27T08:30:12.976Z,28.77
2019-03-27T08:32:39.669Z,18.80
2019-03-27T08:35:06.432Z,19.27
2019-03-27T08:37:33.141Z,30.70
2019-03-27T08:39:59.893Z,26.13
2019-03-27T08:42:26.585Z,21.70
2019-03-27T08:44:53.258Z,20.73
2019-03-27T08:47:19.906Z,21.27
2019-03-27T08:49:46.693Z,24.07
2019-03-27T08:52:13.386Z,21.23
2019-03-27T08:54:40.167Z,24.60
2019-03-27T08:57:06.914Z,25.13
2019-03-27T08:59:33.581Z,23.20
2019-03-27T09:02:00.341Z,26.00
2019-03-27T09:04:27.084Z,30.77
2019-03-27T09:06:53.775Z,21.03
2019-03-27T09:09:20.444Z,28.27
2019-03-27T09:11:47.082Z,22.90
2019-03-27T09:14:13.767Z,27.90
2019-03-27T09:16:40.799Z,25.57
2019-03-27T09:19:07.573Z,26.70
2019-03-27T09:21:34.252Z,20.83
2019-03-27T09:24:00.917Z,21.53
2019-03-27T09:26:27.641Z,21.90
2019-03-27T09:28:54.424Z,20.17
2019-03-27T09:31:21.062Z,29.80
2019-03-27T09:33:47.900Z,24.57
2019-03-27T09:36:14.817Z,31.27
2019-03-27T09:38:41.486Z,26.40
2019-03-27T09:41:08.268Z,22.57
2019-03-27T09:43:35.046Z,27.03
2019-03-27T09:46:01.733Z,25.00
2019-03-27T09:48:28.385Z,23.53
2019-03-27T09:50:55.061Z,23.73
2019-03-27T09:53:21.720Z,27.93
2019-03-27T09:55:48.431Z,32.20
2019-03-27T09:58:15.064Z,9.17
2019-03-27T10:00:48.183Z,7.73
2019-03-27T10:03:14.866Z,10.00
2019-03-27T10:05:41.638Z,10.23
2019-03-27T10:08:08.693Z,10.70
2019-03-27T10:10:35.370Z,14.90
2019-03-27T10:13:02.011Z,17.40
2019-03-27T10:15:28.668Z,8.43
2019-03-27T10:17:55.382Z,9.97
2019-03-27T10:20:22.106Z,7.77
2019-03-27T10:22:48.806Z,12.60
2019-03-27T10:25:15.484Z,11.43
2019-03-27T10:27:42.306Z,7.10
2019-03-27T10:30:09.514Z,7.23
2019-03-27T10:32:37.176Z,8.17
2019-03-27T10:35:04.755Z,10.00
2019-03-27T10:37:31.445Z,7.73
2019-03-27T10:39:58.226Z,6.57
2019-03-27T10:42:24.942Z,7.53
2019-03-27T10:44:51.736Z,5.20
2019-03-27T10:47:18.433Z,6.20
2019-03-27T10:49:45.066Z,7.87
2019-03-27T10:52:11.848Z,4.00
2019-03-27T10:54:38.539Z,3.50
2019-03-27T10:57:05.309Z,5.13
2019-03-27T10:59:32.024Z,5.70
2019-03-27T11:01:58.676Z,5.33
2019-03-27T11:04:25.357Z,12.73
2019-03-27T11:06:52.119Z,7.40
2019-03-27T11:09:18.895Z,8.67
2019-03-27T11:11:45.533Z,7.77
2019-03-27T11:14:12.222Z,4.10
2019-03-27T11:16:39.022Z,3.17
2019-03-27T11:19:05.712Z,5.07
2019-03-27T11:21:32.483Z,5.30
2019-03-27T11:23:59.166Z,4.40
2019-03-27T11:26:30.395Z,10.20
2019-03-27T11:28:57.104Z,3.87
2019-03-27T11:31:23.804Z,4.00
2019-03-27T11:33:50.505Z,4.83
2019-03-27T11:36:17.216Z,5.40
2019-03-27T11:38:50.075Z,9.03
2019-03-27T11:41:17.623Z,5.20
2019-03-27T11:43:54.336Z,6.23
2019-03-27T11:46:12.885Z,4.33
2019-03-27T11:48:39.601Z,4.43
2019-03-27T11:51:06.323Z,6.90
2019-03-27T11:53:33.120Z,4.90
2019-03-27T11:56:02.007Z,5.30
2019-03-27T11:58:28.406Z,5.37
2019-03-27T12:00:55.266Z,6.90
2019-03-27T12:03:22.078Z,8.87
2019-03-27T12:05:48.791Z,6.57
2019-03-27T12:08:15.428Z,3.87
2019-03-27T12:10:42.246Z,6.17
2019-03-27T12:13:08.892Z,2.60
2019-03-27T12:15:39.625Z,3.17
2019-03-27T12:18:08.202Z,4.13
2019-03-27T12:20:35.250Z,2.47
2019-03-27T12:23:02.331Z,4.50
2019-03-27T12:25:29.248Z,3.27
2019-03-27T12:27:56.362Z,3.00
2019-03-27T12:30:23.613Z,3.63
2019-03-27T12:32:50.442Z,3.20
2019-03-27T12:35:17.133Z,5.57
2019-03-27T12:37:43.877Z,13.00
2019-03-27T12:40:11.908Z,7.73
2019-03-27T12:42:38.949Z,5.00
2019-03-27T12:45:05.900Z,4.33
2019-03-27T12:47:32.550Z,5.17
2019-03-27T12:49:59.173Z,4.67
2019-03-27T12:52:25.863Z,4.10
2019-03-27T12:54:52.488Z,4.17
2019-03-27T12:57:19.172Z,8.17
2019-03-27T12:59:45.832Z,6.87
2019-03-27T13:02:12.516Z,4.13
2019-03-27T13:04:39.149Z,4.50
2019-03-27T13:07:05.828Z,5.10
2019-03-27T13:09:32.569Z,6.87
2019-03-27T13:11:59.369Z,5.30
2019-03-27T13:14:26.123Z,5.60
2019-03-27T13:17:12.638Z,4.40
2019-03-27T13:19:39.317Z,4.70
2019-03-27T13:22:06.055Z,3.83
2019-03-27T13:24:32.753Z,5.80
2019-03-27T13:26:59.492Z,5.80
2019-03-27T13:29:26.254Z,6.13
2019-03-27T13:31:52.913Z,9.07
2019-03-27T13:34:19.564Z,3.40
2019-03-27T13:36:47.966Z,4.50
2019-03-27T13:39:14.850Z,6.80
2019-03-27T13:41:41.639Z,4.07
2019-03-27T13:44:08.241Z,3.87
2019-03-27T13:46:35.029Z,6.70
2019-03-27T13:49:01.712Z,5.23
2019-03-27T13:51:39.776Z,3.67
2019-03-27T13:53:56.953Z,3.93
2019-03-27T13:56:23.572Z,3.50
2019-03-27T13:58:50.388Z,3.13
2019-03-27T14:01:17.146Z,2.60
2019-03-27T14:03:43.918Z,3.63
2019-03-27T14:06:11.593Z,4.17
2019-03-27T14:08:38.414Z,3.60
2019-03-27T14:11:05.161Z,3.00
2019-03-27T14:13:31.848Z,3.27
2019-03-27T14:15:58.472Z,3.50
2019-03-27T14:18:25.192Z,3.30
2019-03-27T14:20:51.869Z,4.40
2019-03-27T14:23:18.545Z,6.20
2019-03-27T14:25:45.267Z,3.50
2019-03-27T14:28:11.889Z,3.50
2019-03-27T14:30:48.073Z,5.57
2019-03-27T14:33:14.708Z,4.67
2019-03-27T14:35:41.454Z,4.20
2019-03-27T14:38:08.090Z,5.23
2019-03-27T14:40:34.879Z,10.53
2019-03-27T14:43:01.524Z,5.43
2019-03-27T14:45:28.175Z,9.97
2019-03-27T14:47:54.816Z,15.10
2019-03-27T14:50:21.496Z,7.67
2019-03-27T14:52:48.156Z,6.50
2019-03-27T14:55:14.776Z,8.83
2019-03-27T14:57:41.464Z,6.97
2019-03-27T15:00:09.932Z,8.10
2019-03-27T15:02:36.669Z,6.97
2019-03-27T15:05:06.354Z,13.63
2019-03-27T15:07:33.116Z,7.97
2019-03-27T15:09:59.794Z,7.90
2019-03-27T15:12:26.536Z,6.97
2019-03-27T15:14:53.327Z,6.73
2019-03-27T15:17:20.111Z,10.10
2019-03-27T15:19:46.788Z,6.37
2019-03-27T15:22:22.361Z,6.50
2019-03-27T15:24:42.232Z,6.23
2019-03-27T15:27:09.053Z,6.50
2019-03-27T15:29:35.805Z,6.77
2019-03-27T15:32:02.897Z,7.77
2019-03-27T15:34:29.557Z,7.53
2019-03-27T15:36:56.215Z,10.63
2019-03-27T15:39:22.994Z,8.17
2019-03-27T15:41:49.671Z,14.10
2019-03-27T15:44:16.304Z,8.00
2019-03-27T15:46:43.098Z,9.27
2019-03-27T15:49:09.748Z,14.73
2019-03-27T15:51:36.440Z,9.77
2019-03-27T15:54:03.185Z,12.97
2019-03-27T15:56:29.976Z,11.43
2019-03-27T15:58:56.661Z,11.30
2019-03-27T16:01:23.422Z,15.80
2019-03-27T16:03:50.077Z,10.50
2019-03-27T16:06:16.871Z,13.37
2019-03-27T16:08:43.528Z,9.83
2019-03-27T16:11:10.272Z,10.67
2019-03-27T16:13:37.068Z,12.63
2019-03-27T16:16:03.805Z,16.03
2019-03-27T16:18:30.496Z,10.33
2019-03-27T16:20:57.307Z,17.80
2019-03-27T16:23:24.001Z,13.20
2019-03-27T16:25:50.773Z,10.40
2019-03-27T16:28:17.458Z,10.53
2019-03-27T16:30:44.093Z,10.70
2019-03-27T16:33:10.784Z,9.97
2019-03-27T16:35:37.441Z,10.70
2019-03-27T16:38:04.113Z,11.03
2019-03-27T16:40:45.341Z,9.33
2019-03-27T16:43:12.257Z,8.70
2019-03-27T16:45:38.896Z,9.20
2019-03-27T16:48:05.563Z,8.97
2019-03-27T16:50:32.222Z,12.50
2019-03-27T16:53:03.676Z,9.73
2019-03-27T16:55:27.449Z,12.00
2019-03-27T16:57:54.085Z,11.23
2019-03-27T17:00:20.769Z,8.43
2019-03-27T17:02:47.408Z,8.63
2019-03-27T17:05:15.898Z,11.67
2019-03-27T17:07:42.669Z,12.57
2019-03-27T17:10:09.439Z,10.10
2019-03-27T17:12:36.191Z,14.47
2019-03-27T17:15:04.868Z,9.43
2019-03-27T17:17:31.658Z,11.17
2019-03-27T17:19:58.384Z,11.73
2019-03-27T17:22:25.129Z,10.97
2019-03-27T17:24:51.944Z,12.33
2019-03-27T17:27:18.627Z,13.63
2019-03-27T17:29:45.282Z,17.37
2019-03-27T17:32:11.986Z,12.43
2019-03-27T17:34:38.726Z,18.97
2019-03-27T17:37:05.401Z,14.40
2019-03-27T17:39:32.204Z,13.23
2019-03-27T17:41:58.831Z,15.50
2019-03-27T17:44:25.491Z,13.93
2019-03-27T17:46:52.264Z,13.80
2019-03-27T17:49:19.046Z,13.23
2019-03-27T17:51:45.725Z,12.03
2019-03-27T17:54:20.351Z,14.13
2019-03-27T17:56:40.905Z,13.20
2019-03-27T17:59:07.580Z,13.13
2019-03-27T18:01:34.320Z,13.73
2019-03-27T18:04:01.121Z,13.83
2019-03-27T18:06:27.781Z,15.00
2019-03-27T18:08:54.578Z,15.73
2019-03-27T18:11:21.221Z,14.63
2019-03-27T18:13:47.900Z,17.20
2019-03-27T18:16:16.969Z,15.70
2019-03-27T18:18:43.146Z,14.20
2019-03-27T18:21:09.870Z,13.70
2019-03-27T18:23:45.927Z,13.50
2019-03-27T18:26:05.377Z,12.23
2019-03-27T18:28:32.128Z,12.80
2019-03-27T18:30:58.811Z,17.03
2019-03-27T18:33:25.471Z,13.00
2019-03-27T18:35:52.154Z,15.47
2019-03-27T18:38:21.311Z,12.77
2019-03-27T18:40:47.998Z,13.90
2019-03-27T18:43:22.116Z,13.90
2019-03-27T18:45:48.782Z,13.50
2019-03-27T18:48:17.432Z,12.37
2019-03-27T18:50:44.140Z,12.93
2019-03-27T18:53:10.796Z,12.87
2019-03-27T18:55:37.569Z,15.00
2019-03-27T18:58:04.232Z,13.63
2019-03-27T19:00:30.988Z,14.00
2019-03-27T19:02:57.758Z,11.97
2019-03-27T19:05:24.434Z,13.20
2019-03-27T19:07:51.119Z,11.20
2019-03-27T19:10:17.835Z,19.80
2019-03-27T19:12:44.602Z,11.03
2019-03-27T19:15:11.404Z,16.83
2019-03-27T19:17:38.067Z,11.97
2019-03-27T19:20:05.772Z,11.20
2019-03-27T19:22:32.445Z,11.77
2019-03-27T19:24:59.172Z,10.97
2019-03-27T19:27:25.860Z,14.77
2019-03-27T19:29:52.520Z,12.47
2019-03-27T19:32:19.347Z,15.00
2019-03-27T19:34:45.971Z,10.07
2019-03-27T19:37:12.686Z,9.90
2019-03-27T19:39:39.476Z,10.83
2019-03-27T19:42:06.285Z,8.73
2019-03-27T19:44:32.932Z,10.00
2019-03-27T19:46:59.592Z,10.30
2019-03-27T19:49:26.267Z,8.37
2019-03-27T19:51:52.985Z,11.70
2019-03-27T19:54:27.117Z,12.93
2019-03-27T19:56:48.252Z,8.67
2019-03-27T19:59:15.408Z,9.23
2019-03-27T20:01:42.248Z,13.40
2019-03-27T20:04:08.996Z,11.63
2019-03-27T20:06:35.844Z,9.67
2019-03-27T20:09:04.459Z,7.87
2019-03-27T20:11:31.322Z,8.70
2019-03-27T20:13:58.080Z,8.50
2019-03-27T20:16:24.720Z,7.63
2019-03-27T20:18:51.400Z,7.23
2019-03-27T20:21:18.099Z,10.13
2019-03-27T20:23:44.884Z,6.73
2019-03-27T20:26:11.588Z,9.83
2019-03-27T20:28:38.249Z,6.63
2019-03-27T20:31:04.890Z,6.67
2019-03-27T20:33:31.583Z,7.63
2019-03-27T20:35:58.252Z,7.50
2019-03-27T20:38:24.945Z,7.17
2019-03-27T20:40:51.733Z,6.07
2019-03-27T20:43:18.381Z,8.20
2019-03-27T20:45:45.064Z,6.20
2019-03-27T20:48:11.771Z,10.10
2019-03-27T20:50:38.404Z,7.67
2019-03-27T20:53:05.076Z,6.40
2019-03-27T20:55:31.840Z,7.57
2019-03-27T20:57:58.497Z,10.50
2019-03-27T21:00:25.197Z,6.23
2019-03-27T21:02:51.851Z,10.90
2019-03-27T21:05:18.533Z,10.50
2019-03-27T21:07:45.276Z,6.20
2019-03-27T21:10:12.555Z,6.60
2019-03-27T21:12:39.208Z,9.60
2019-03-27T21:15:07.116Z,9.13
2019-03-27T21:17:33.741Z,9.67
2019-03-27T21:20:00.552Z,8.20
2019-03-27T21:22:27.241Z,10.30
2019-03-27T21:25:07.593Z,7.70
2019-03-27T21:27:22.418Z,11.03
2019-03-27T21:29:49.103Z,11.57
2019-03-27T21:32:15.763Z,7.63
2019-03-27T21:34:42.441Z,13.43
2019-03-27T21:37:09.095Z,9.03
2019-03-27T21:39:35.784Z,7.07
2019-03-27T21:42:02.434Z,7.33
2019-03-27T21:44:29.207Z,6.33
2019-03-27T21:46:55.996Z,8.53
2019-03-27T21:49:22.704Z,7.27
2019-03-27T21:51:49.504Z,9.80
2019-03-27T21:54:16.152Z,8.37
2019-03-27T21:56:42.851Z,8.03
2019-03-27T21:59:09.598Z,10.70
2019-03-27T22:01:36.275Z,8.43
2019-03-27T22:04:02.916Z,13.23
2019-03-27T22:06:29.624Z,13.57
2019-03-27T22:08:56.377Z,13.17
2019-03-27T22:11:23.060Z,12.60
2019-03-27T22:13:49.704Z,10.43
2019-03-27T22:16:16.404Z,9.63
2019-03-27T22:18:43.158Z,8.37
2019-03-27T22:21:11.864Z,8.83
2019-03-27T22:23:38.569Z,8.17
2019-03-27T22:26:05.268Z,9.13
2019-03-27T22:28:31.928Z,8.73
2019-03-27T22:30:58.714Z,17.77
2019-03-27T22:33:25.364Z,9.37
2019-03-27T22:35:52.040Z,8.50
2019-03-27T22:38:18.676Z,9.20
2019-03-27T22:40:45.360Z,9.40
2019-03-27T22:43:12.006Z,8.00
2019-03-27T22:45:38.676Z,9.27
2019-03-27T22:48:05.438Z,11.37
2019-03-27T22:50:32.120Z,12.10
2019-03-27T22:52:58.868Z,7.93
2019-03-27T22:55:25.668Z,8.93
2019-03-27T22:57:52.544Z,7.60
2019-03-27T23:00:21.145Z,7.43
2019-03-27T23:02:47.784Z,8.67
2019-03-27T23:05:14.721Z,7.93
2019-03-27T23:07:41.504Z,7.93
2019-03-27T23:10:08.360Z,7.07
2019-03-27T23:12:35.041Z,8.20
2019-03-27T23:15:01.706Z,7.93
2019-03-27T23:17:28.395Z,7.87
2019-03-27T23:19:55.161Z,8.93
2019-03-27T23:22:21.874Z,10.27
2019-03-27T23:24:48.545Z,8.47
2019-03-27T23:27:15.221Z,7.40
2019-03-27T23:29:41.861Z,8.17
2019-03-27T23:32:08.675Z,8.20
2019-03-27T23:34:35.363Z,8.53
2019-03-27T23:37:02.115Z,15.03
2019-03-27T23:39:28.839Z,9.97
2019-03-27T23:41:55.528Z,8.77
2019-03-27T23:44:22.206Z,9.13
2019-03-27T23:46:48.853Z,9.57
2019-03-27T23:49:15.530Z,9.80
2019-03-27T23:51:42.315Z,9.07
2019-03-27T23:54:08.964Z,8.37
2019-03-27T23:56:35.625Z,8.57
2019-03-27T23:59:02.400Z,12.17
